Time;durP1;ratioP1;P1;durP2;ratioP2;P2;SDS_P1;SDS_P2;PMS_P1;PMS_P2;Temp;Humidity;BMP_temperature;BMP_pressure;BME280_temperature;BME280_humidity;BME280_pressure;Samples;Min_cycle;Max_cycle;Signal;HPM_P1;HPM_P2
2024/03/30 00:00:46;;;;;;;14.27;13.97;;;20.90;63.00;;;;;;5067716;28;20460;-69
2024/03/30 00:03:15;;;;;;;14.90;14.47;;;20.80;63.00;;;;;;5052699;28;20448;-69
2024/03/30 00:05:41;;;;;;;15.20;14.70;;;20.90;63.00;;;;;;5052703;28;20441;-69
2024/03/30 00:08:08;;;;;;;14.70;14.30;;;20.90;62.90;;;;;;5052298;28;20480;-69
2024/03/30 00:10:36;;;;;;;14.77;14.17;;;20.90;63.00;;;;;;5055537;28;20970;-69
2024/03/30 00:13:03;;;;;;;14.20;13.80;;;20.90;63.10;;;;;;5067258;28;20541;-69
2024/03/30 00:15:29;;;;;;;15.00;14.50;;;20.90;63.20;;;;;;5052511;28;20463;-69
2024/03/30 00:17:56;;;;;;;14.90;14.43;;;20.90;63.20;;;;;;5052163;28;20440;-69
2024/03/30 00:20:23;;;;;;;14.60;14.20;;;20.90;63.30;;;;;;5052831;28;20471;-68
2024/03/30 00:22:50;;;;;;;14.77;14.37;;;20.80;63.20;;;;;;5071606;28;20822;-69
2024/03/30 00:25:17;;;;;;;14.47;14.07;;;20.90;63.40;;;;;;5072291;28;20832;-69
2024/03/30 00:27:44;;;;;;;13.90;13.60;;;20.80;63.30;;;;;;5072120;28;20475;-69
2024/03/30 00:30:10;;;;;;;14.20;13.80;;;20.80;63.40;;;;;;5072022;28;21167;-69
2024/03/30 00:32:37;;;;;;;14.60;14.20;;;20.80;63.40;;;;;;5052922;28;20800;-69
2024/03/30 00:35:03;;;;;;;14.60;14.20;;;20.80;63.50;;;;;;5051955;28;20975;-69
2024/03/30 00:37:31;;;;;;;14.30;13.90;;;20.80;63.50;;;;;;5052122;28;20494;-69
2024/03/30 00:39:57;;;;;;;15.10;14.60;;;20.80;63.60;;;;;;5051535;28;20444;-69
2024/03/30 00:42:23;;;;;;;14.53;14.10;;;20.80;63.60;;;;;;5068454;28;21020;-69
2024/03/30 00:44:49;;;;;;;14.53;14.13;;;20.80;63.60;;;;;;5072269;28;20201;-68
2024/03/30 00:47:16;;;;;;;14.00;13.60;;;20.80;63.60;;;;;;5071942;28;20951;-69
2024/03/30 00:49:42;;;;;;;13.90;13.50;;;20.80;63.70;;;;;;5071243;28;20200;-68
2024/03/30 00:52:09;;;;;;;14.10;13.80;;;20.80;63.90;;;;;;5071890;28;20462;-69
2024/03/30 00:54:36;;;;;;;14.50;14.10;;;20.70;63.80;;;;;;5071916;28;20446;-69
2024/03/30 00:57:02;;;;;;;14.70;14.30;;;20.70;63.70;;;;;;5071876;28;20447;-69
2024/03/30 00:59:28;;;;;;;14.20;13.80;;;20.70;63.60;;;;;;5071104;28;20447;-68
2024/03/30 01:01:55;;;;;;;14.17;13.77;;;20.70;63.70;;;;;;5061313;28;20484;-69
2024/03/30 01:04:21;;;;;;;14.33;13.93;;;20.70;63.70;;;;;;5052089;28;20197;-69
2024/03/30 01:06:47;;;;;;;14.20;13.80;;;20.70;63.80;;;;;;5051592;28;20447;-68
2024/03/30 01:09:13;;;;;;;14.00;13.60;;;20.70;63.70;;;;;;5054669;28;20200;-68
2024/03/30 01:11:42;;;;;;;14.90;14.40;;;20.70;63.80;;;;;;5071747;28;20463;-69
2024/03/30 01:14:09;;;;;;;14.50;14.10;;;20.70;63.80;;;;;;5071818;28;20201;-69
2024/03/30 01:16:36;;;;;;;13.70;13.40;;;20.70;63.80;;;;;;5071692;28;20450;-69
2024/03/30 01:19:03;;;;;;;14.20;13.80;;;20.70;63.90;;;;;;5071034;28;20435;-69
2024/03/30 01:21:30;;;;;;;13.93;13.60;;;20.70;63.90;;;;;;5071511;28;20479;-69
2024/03/30 01:23:56;;;;;;;13.67;13.37;;;20.70;63.90;;;;;;5071741;28;20436;-69
2024/03/30 01:26:26;;;;;;;13.70;13.40;;;20.70;64.00;;;;;;5071558;28;20439;-69
2024/03/30 01:28:54;;;;;;;14.47;14.07;;;20.70;64.00;;;;;;5070897;28;20443;-68
2024/03/30 01:31:22;;;;;;;13.90;13.53;;;20.70;64.00;;;;;;5051711;28;21047;-69
2024/03/30 01:33:48;;;;;;;14.53;14.13;;;20.60;64.00;;;;;;5051484;28;20443;-69
2024/03/30 01:36:15;;;;;;;14.33;13.93;;;20.60;64.10;;;;;;5055172;28;20471;-69
2024/03/30 01:38:42;;;;;;;14.80;14.40;;;20.60;64.00;;;;;;5055067;28;20513;-69
2024/03/30 01:41:09;;;;;;;14.13;13.67;;;20.60;64.10;;;;;;5073370;28;20455;-69
2024/03/30 01:43:35;;;;;;;14.37;13.97;;;20.60;64.10;;;;;;5075359;28;20489;-69
2024/03/30 01:46:03;;;;;;;14.60;14.20;;;20.60;64.10;;;;;;5075373;28;20943;-68
2024/03/30 01:48:29;;;;;;;14.13;13.40;;;20.60;64.10;;;;;;5074936;28;20459;-69
2024/03/30 01:50:57;;;;;;;14.30;13.80;;;20.60;64.20;;;;;;5074864;28;20845;-69
2024/03/30 01:53:26;;;;;;;13.00;12.70;;;20.60;64.20;;;;;;5075079;28;20197;-68
2024/03/30 01:55:54;;;;;;;13.77;13.37;;;20.60;64.20;;;;;;5075141;28;20849;-69
2024/03/30 01:58:23;;;;;;;13.03;12.73;;;20.60;64.30;;;;;;5074683;28;20452;-68
2024/03/30 02:00:52;;;;;;;13.30;13.00;;;20.60;64.20;;;;;;5074294;28;20463;-69
2024/03/30 02:03:23;;;;;;;14.03;13.23;;;20.60;64.30;;;;;;5074445;28;20835;-69
2024/03/30 02:05:50;;;;;;;13.63;13.23;;;20.60;64.30;;;;;;5074968;28;20447;-68
2024/03/30 02:08:17;;;;;;;13.37;13.07;;;20.60;64.40;;;;;;5074436;28;20454;-69
2024/03/30 02:10:46;;;;;;;14.30;13.90;;;20.60;64.40;;;;;;5074461;28;20459;-69
2024/03/30 02:13:13;;;;;;;14.10;13.60;;;20.60;64.50;;;;;;5074742;28;20486;-69
2024/03/30 02:15:40;;;;;;;13.60;13.20;;;20.60;64.50;;;;;;5074823;28;20446;-70
2024/03/30 02:18:06;;;;;;;14.23;13.67;;;20.60;64.60;;;;;;5074426;28;20466;-69
2024/03/30 02:20:34;;;;;;;13.00;12.60;;;20.60;64.70;;;;;;5074172;28;20474;-69
2024/03/30 02:23:00;;;;;;;13.67;13.27;;;20.60;64.70;;;;;;5074324;28;20485;-69
2024/03/30 02:25:28;;;;;;;13.57;13.23;;;20.60;64.60;;;;;;5074626;28;20435;-69
2024/03/30 02:27:54;;;;;;;13.00;12.70;;;20.60;64.70;;;;;;5072788;28;20205;-69
2024/03/30 02:30:25;;;;;;;14.20;13.80;;;20.60;64.80;;;;;;5054236;28;20987;-69
2024/03/30 02:32:51;;;;;;;13.63;13.30;;;20.50;64.70;;;;;;5054521;28;20210;-69
2024/03/30 02:35:18;;;;;;;13.80;13.40;;;20.60;64.80;;;;;;5054603;28;20506;-69
2024/03/30 02:37:46;;;;;;;14.10;13.70;;;20.60;64.60;;;;;;5054222;28;20444;-69
2024/03/30 02:40:13;;;;;;;14.00;13.70;;;20.60;64.70;;;;;;5074734;28;21065;-69
2024/03/30 02:42:41;;;;;;;14.63;14.23;;;20.60;64.70;;;;;;5075336;28;20850;-69
2024/03/30 02:45:09;;;;;;;14.00;13.60;;;20.60;64.70;;;;;;5074748;28;20966;-69
2024/03/30 02:47:35;;;;;;;14.07;13.63;;;20.60;64.70;;;;;;5074037;28;20443;-69
2024/03/30 02:50:02;;;;;;;14.20;13.80;;;20.60;64.70;;;;;;5055490;28;20443;-69
2024/03/30 02:52:28;;;;;;;17.10;16.63;;;20.60;64.70;;;;;;5053971;28;20202;-69
2024/03/30 02:54:55;;;;;;;16.53;16.00;;;20.60;64.70;;;;;;5053992;28;20455;-69
2024/03/30 02:57:20;;;;;;;15.70;15.10;;;20.60;64.70;;;;;;5063063;28;20201;-69
2024/03/30 02:59:49;;;;;;;13.87;13.47;;;20.60;64.80;;;;;;5073756;28;20450;-69
2024/03/30 03:02:15;;;;;;;14.13;13.73;;;20.60;64.90;;;;;;5074153;28;20224;-69
2024/03/30 03:04:42;;;;;;;14.50;14.00;;;20.60;64.90;;;;;;5073957;28;20443;-69
2024/03/30 03:07:07;;;;;;;14.40;14.00;;;20.60;65.00;;;;;;5073657;28;20922;-69
2024/03/30 03:09:35;;;;;;;16.80;16.30;;;20.60;64.90;;;;;;5073473;28;20439;-68
2024/03/30 03:12:01;;;;;;;16.70;16.20;;;20.50;64.80;;;;;;5073953;28;20221;-68
2024/03/30 03:14:29;;;;;;;16.70;16.20;;;20.60;64.90;;;;;;5073646;28;20446;-69
2024/03/30 03:16:56;;;;;;;17.23;16.73;;;20.50;64.80;;;;;;5073525;28;20439;-68
2024/03/30 03:19:23;;;;;;;17.23;16.73;;;20.50;64.90;;;;;;5073375;28;20451;-69
2024/03/30 03:21:49;;;;;;;17.00;16.50;;;20.50;64.90;;;;;;5073234;28;20487;-68
2024/03/30 03:24:16;;;;;;;17.30;16.80;;;20.50;64.90;;;;;;5073888;28;20922;-68
2024/03/30 03:26:42;;;;;;;17.37;16.87;;;20.50;64.90;;;;;;5073312;28;20777;-68
2024/03/30 03:29:09;;;;;;;17.30;16.80;;;20.50;64.90;;;;;;5073066;28;20954;-69
2024/03/30 03:31:35;;;;;;;17.97;17.37;;;20.50;64.90;;;;;;5073383;28;20319;-70
2024/03/30 03:34:03;;;;;;;18.20;17.60;;;20.60;65.00;;;;;;5073492;28;20522;-70
2024/03/30 03:36:29;;;;;;;15.70;15.20;;;20.50;64.90;;;;;;5073183;28;20201;-70
2024/03/30 03:38:56;;;;;;;15.13;14.73;;;20.50;64.80;;;;;;5072841;28;20496;-70
2024/03/30 03:41:22;;;;;;;15.47;14.97;;;20.50;64.90;;;;;;5072837;28;20459;-70
2024/03/30 03:43:49;;;;;;;15.97;15.47;;;20.50;64.80;;;;;;5072913;28;20461;-70
2024/03/30 03:46:14;;;;;;;15.40;15.00;;;20.50;64.90;;;;;;5060076;28;20205;-69
2024/03/30 03:48:41;;;;;;;15.70;15.30;;;20.50;64.90;;;;;;5052780;28;20435;-69
2024/03/30 03:51:09;;;;;;;15.37;14.97;;;20.50;64.90;;;;;;5053268;28;20225;-70
2024/03/30 03:53:36;;;;;;;15.67;15.27;;;20.50;64.90;;;;;;5052972;28;20543;-70
2024/03/30 03:56:01;;;;;;;16.17;15.67;;;20.50;64.90;;;;;;5063426;28;20436;-70
2024/03/30 03:58:28;;;;;;;15.60;15.20;;;20.50;64.90;;;;;;5071224;28;20450;-70
2024/03/30 04:00:54;;;;;;;16.50;16.00;;;20.50;64.90;;;;;;5072698;28;20221;-69
2024/03/30 04:03:21;;;;;;;15.60;15.20;;;20.50;65.00;;;;;;5072770;28;20478;-69
2024/03/30 04:05:47;;;;;;;15.90;15.50;;;20.50;65.00;;;;;;5066779;28;20198;-69
2024/03/30 04:08:15;;;;;;;15.60;15.20;;;20.50;64.90;;;;;;5052392;28;20444;-69
2024/03/30 04:10:40;;;;;;;15.67;15.27;;;20.50;64.90;;;;;;5052745;28;20217;-69
2024/03/30 04:13:07;;;;;;;15.17;14.77;;;20.50;65.00;;;;;;5052744;28;20443;-69
2024/03/30 04:15:33;;;;;;;15.80;15.40;;;20.50;65.00;;;;;;5055730;28;20193;-70
2024/03/30 04:18:01;;;;;;;15.37;14.97;;;20.50;65.10;;;;;;5072131;28;20469;-69
2024/03/30 04:20:27;;;;;;;15.97;15.57;;;20.50;65.00;;;;;;5072571;28;20479;-69
2024/03/30 04:22:54;;;;;;;15.93;15.53;;;20.50;65.00;;;;;;5072344;28;20478;-69
2024/03/30 04:25:21;;;;;;;15.60;15.20;;;20.50;65.00;;;;;;5070945;28;20676;-69
2024/03/30 04:27:48;;;;;;;17.00;16.50;;;20.50;65.00;;;;;;5052006;28;20494;-69
2024/03/30 04:30:17;;;;;;;16.40;15.90;;;20.50;65.80;;;;;;5052056;28;20475;-69
2024/03/30 04:32:43;;;;;;;15.80;15.40;;;20.50;65.00;;;;;;5052454;28;20444;-69
2024/03/30 04:35:10;;;;;;;16.43;15.93;;;20.50;65.10;;;;;;5052362;28;20436;-70
2024/03/30 04:37:38;;;;;;;16.50;16.00;;;20.50;65.10;;;;;;5072045;28;20455;-70
2024/03/30 04:40:06;;;;;;;15.77;15.37;;;20.50;65.20;;;;;;5071686;28;20446;-70
2024/03/30 04:42:34;;;;;;;15.80;15.40;;;20.50;65.10;;;;;;5072042;28;20542;-69
2024/03/30 04:44:59;;;;;;;16.10;15.70;;;20.50;65.20;;;;;;5059630;28;20440;-69
2024/03/30 04:47:26;;;;;;;15.67;15.27;;;20.50;65.30;;;;;;5051816;28;20440;-70
2024/03/30 04:49:52;;;;;;;16.20;15.70;;;20.50;65.30;;;;;;5051612;28;20206;-70
2024/03/30 04:52:19;;;;;;;16.13;15.73;;;20.50;65.10;;;;;;5051983;28;20780;-70
2024/03/30 04:54:45;;;;;;;16.40;16.00;;;20.50;64.80;;;;;;5061041;28;20205;-70
2024/03/30 04:57:13;;;;;;;15.47;15.07;;;20.60;64.70;;;;;;5071977;28;20930;-69
2024/03/30 04:59:40;;;;;;;15.13;14.73;;;20.60;64.40;;;;;;5071721;28;20572;-69
2024/03/30 05:02:07;;;;;;;15.27;14.87;;;20.60;64.40;;;;;;5071625;28;20479;-70
2024/03/30 05:04:33;;;;;;;18.43;17.20;;;20.60;65.10;;;;;;5071963;28;20810;-70
2024/03/30 05:07:00;;;;;;;16.07;15.67;;;20.60;64.20;;;;;;5071892;28;20435;-69
2024/03/30 05:09:26;;;;;;;16.03;15.63;;;20.60;64.20;;;;;;5071031;28;20446;-69
2024/03/30 05:11:52;;;;;;;15.70;15.30;;;20.60;64.30;;;;;;5071604;28;20448;-70
2024/03/30 05:14:18;;;;;;;15.23;14.83;;;20.70;64.20;;;;;;5071291;28;20204;-70
2024/03/30 05:16:46;;;;;;;15.57;15.17;;;20.60;64.20;;;;;;5071637;28;20435;-70
2024/03/30 05:21:54;;;;;;;16.17;15.70;;;20.70;64.40;;;;;;5070725;28;20455;-69
2024/03/30 05:24:21;;;;;;;15.37;14.97;;;20.70;64.40;;;;;;5071398;28;20443;-69
2024/03/30 05:26:47;;;;;;;16.13;15.43;;;20.60;64.10;;;;;;5071790;28;20452;-68
2024/03/30 05:29:14;;;;;;;15.50;15.10;;;20.70;64.30;;;;;;5071222;28;20970;-68
2024/03/30 05:31:40;;;;;;;15.47;15.07;;;20.70;64.30;;;;;;5071409;28;20228;-68
2024/03/30 05:34:08;;;;;;;15.50;15.10;;;20.70;65.00;;;;;;5071437;28;20443;-68
2024/03/30 05:36:34;;;;;;;15.17;14.67;;;20.70;64.10;;;;;;5071584;28;20209;-68
2024/03/30 05:39:00;;;;;;;15.23;14.80;;;20.70;64.30;;;;;;5071393;28;20423;-68
2024/03/30 05:41:26;;;;;;;15.23;14.83;;;20.70;64.10;;;;;;5071231;28;20459;-68
2024/03/30 05:43:53;;;;;;;14.40;14.00;;;20.70;64.10;;;;;;5071113;28;20486;-69
2024/03/30 05:46:22;;;;;;;14.73;14.17;;;20.80;64.20;;;;;;5071508;28;20229;-67
2024/03/30 05:48:49;;;;;;;15.23;14.83;;;20.80;64.10;;;;;;5070860;28;20508;-65
2024/03/30 05:51:17;;;;;;;15.83;15.23;;;20.80;64.10;;;;;;5070946;28;20958;-65
2024/03/30 05:53:46;;;;;;;16.20;15.80;;;20.80;64.30;;;;;;5071471;28;20431;-66
2024/03/30 05:56:13;;;;;;;17.53;16.93;;;20.80;64.10;;;;;;5071240;28;20439;-67
2024/03/30 05:58:39;;;;;;;16.53;16.13;;;20.80;64.30;;;;;;5070784;28;20440;-66
2024/03/30 06:01:06;;;;;;;16.80;16.20;;;20.80;64.00;;;;;;5066560;28;20482;-66
2024/03/30 06:03:32;;;;;;;16.97;16.47;;;20.80;63.90;;;;;;5051183;28;20567;-67
2024/03/30 06:05:58;;;;;;;16.90;16.40;;;20.80;63.90;;;;;;5051138;28;20444;-67
2024/03/30 06:08:25;;;;;;;16.17;15.77;;;20.80;63.90;;;;;;5050795;28;20569;-69
2024/03/30 06:10:52;;;;;;;16.10;15.70;;;20.80;64.00;;;;;;5051218;28;21030;-67
2024/03/30 06:13:18;;;;;;;16.13;15.63;;;20.90;64.10;;;;;;5051278;28;20458;-69
2024/03/30 06:15:44;;;;;;;15.60;15.10;;;20.90;64.10;;;;;;5050811;28;20435;-68
2024/03/30 06:18:10;;;;;;;15.77;15.37;;;20.90;64.00;;;;;;5050677;28;20797;-65
2024/03/30 06:20:38;;;;;;;16.13;15.67;;;20.90;64.00;;;;;;5051200;28;20464;-66
2024/03/30 06:23:03;;;;;;;16.00;15.60;;;20.90;63.90;;;;;;5073736;28;20239;-65
2024/03/30 06:25:32;;;;;;;15.70;15.10;;;21.00;64.10;;;;;;5074296;28;20965;-68
2024/03/30 06:27:58;;;;;;;15.50;15.10;;;21.00;64.10;;;;;;5074594;28;20292;-65
2024/03/30 06:30:24;;;;;;;15.87;15.37;;;21.00;64.00;;;;;;5074058;28;20465;-67
2024/03/30 06:32:51;;;;;;;13.73;13.32;;;21.00;63.90;;;;;;5073262;28;20430;-65
2024/03/30 06:35:19;;;;;;;17.20;16.80;;;21.00;64.00;;;;;;5074298;28;20197;-68
2024/03/30 06:37:44;;;;;;;13.60;13.30;;;21.10;63.80;;;;;;5073065;28;20519;-67
2024/03/30 06:45:41;;;;;;;15.48;14.98;;;21.20;63.60;;;;;;5073728;28;20440;-66
2024/03/30 06:48:08;;;;;;;16.30;15.90;;;21.30;63.20;;;;;;5073867;28;20208;-67
2024/03/30 06:50:35;;;;;;;13.70;13.30;;;21.30;62.80;;;;;;5073156;28;20821;-65
2024/03/30 06:53:01;;;;;;;16.63;16.13;;;21.30;63.00;;;;;;5073728;28;20197;-65
2024/03/30 06:55:27;;;;;;;15.90;15.40;;;21.30;62.70;;;;;;5074054;28;20443;-65
2024/03/30 06:57:53;;;;;;;16.00;15.50;;;21.30;62.60;;;;;;5073495;28;20953;-65
2024/03/30 07:00:21;;;;;;;15.20;14.80;;;21.30;62.70;;;;;;5072645;28;20438;-65
2024/03/30 07:02:47;;;;;;;17.70;17.20;;;21.30;62.80;;;;;;5073631;28;20217;-67
2024/03/30 07:05:14;;;;;;;17.92;17.42;;;21.30;62.80;;;;;;5073801;28;21070;-67
2024/03/30 07:07:40;;;;;;;16.50;15.80;;;21.30;62.80;;;;;;5072682;28;20430;-66
2024/03/30 07:10:08;;;;;;;16.00;15.50;;;21.30;63.10;;;;;;5072143;28;20437;-67
2024/03/30 07:12:34;;;;;;;15.10;14.70;;;21.30;63.20;;;;;;5072565;28;20910;-66
2024/03/30 07:15:01;;;;;;;18.20;17.70;;;21.30;63.20;;;;;;5073884;28;20363;-66
2024/03/30 07:17:28;;;;;;;17.27;16.77;;;21.40;62.80;;;;;;5072963;28;20441;-68
2024/03/30 07:19:55;;;;;;;18.10;17.60;;;21.40;62.60;;;;;;5052916;28;20152;-65
2024/03/30 07:22:21;;;;;;;16.73;16.23;;;21.40;62.50;;;;;;5052871;28;20799;-67
2024/03/30 07:24:48;;;;;;;15.75;15.23;;;21.40;62.70;;;;;;5052628;28;20535;-67
2024/03/30 07:27:13;;;;;;;16.50;16.00;;;21.40;63.00;;;;;;5053027;28;20440;-68
2024/03/30 07:29:40;;;;;;;17.53;17.03;;;21.40;62.90;;;;;;5069263;28;20535;-70
2024/03/30 07:32:06;;;;;;;17.53;16.83;;;21.40;63.10;;;;;;5072893;28;20258;-69
2024/03/30 07:34:34;;;;;;;17.97;17.37;;;21.50;63.80;;;;;;5073034;28;20475;-67
2024/03/30 07:37:00;;;;;;;15.30;14.80;;;21.60;63.10;;;;;;5053062;28;20938;-67
2024/03/30 07:39:26;;;;;;;18.00;17.40;;;21.60;62.90;;;;;;5052606;28;20202;-64
2024/03/30 07:41:52;;;;;;;17.83;17.23;;;21.70;62.40;;;;;;5052436;28;20221;-67
2024/03/30 07:44:24;;;;;;;17.80;17.30;;;21.80;62.30;;;;;;5062355;28;20477;-65
2024/03/30 07:46:50;;;;;;;15.83;15.30;;;21.80;62.00;;;;;;5072459;28;20434;-66
2024/03/30 07:49:16;;;;;;;18.00;17.40;;;21.80;62.00;;;;;;5071648;28;20869;-66
2024/03/30 07:51:43;;;;;;;18.00;17.40;;;21.80;62.40;;;;;;5052654;28;20221;-70
2024/03/30 07:54:10;;;;;;;17.80;17.10;;;21.80;62.10;;;;;;5060423;28;20435;-69
2024/03/30 07:56:38;;;;;;;17.70;17.20;;;21.90;62.30;;;;;;5072707;28;20446;-71
2024/03/30 07:59:05;;;;;;;17.17;16.50;;;22.00;62.20;;;;;;5072377;28;20440;-71
2024/03/30 08:01:33;;;;;;;17.70;17.20;;;22.00;61.60;;;;;;5072563;28;20476;-71
2024/03/30 08:04:00;;;;;;;18.37;17.77;;;21.90;61.50;;;;;;5072144;28;20848;-71
2024/03/30 08:06:26;;;;;;;18.90;18.10;;;21.90;61.60;;;;;;5068929;28;20439;-71
2024/03/30 08:08:54;;;;;;;19.43;17.97;;;22.00;62.90;;;;;;5063264;28;20435;-71
2024/03/30 08:11:21;;;;;;;18.93;17.80;;;22.00;64.10;;;;;;5072078;28;20251;-70
2024/03/30 08:13:48;;;;;;;20.57;18.80;;;22.00;65.90;;;;;;5072608;28;20443;-70
2024/03/30 08:16:14;;;;;;;20.77;19.40;;;22.00;67.50;;;;;;5072283;28;20439;-70
2024/03/30 08:18:41;;;;;;;21.08;18.23;;;22.00;70.20;;;;;;5072290;28;20438;-69
2024/03/30 08:21:07;;;;;;;19.97;18.60;;;22.10;71.60;;;;;;5073873;28;20216;-69
2024/03/30 08:23:34;;;;;;;22.07;19.90;;;22.00;68.60;;;;;;5073306;28;20556;-69
2024/03/30 08:26:01;;;;;;;18.80;17.40;;;22.00;72.00;;;;;;5071150;28;20649;-69
2024/03/30 08:28:28;;;;;;;19.27;18.27;;;21.90;73.50;;;;;;5072522;28;20479;-69
2024/03/30 08:30:55;;;;;;;20.10;18.67;;;21.90;76.60;;;;;;5072063;28;20475;-68
2024/03/30 08:33:22;;;;;;;19.63;18.30;;;22.00;75.30;;;;;;5072223;28;20435;-69
2024/03/30 08:35:54;;;;;;;20.50;18.70;;;22.10;74.40;;;;;;5071995;28;20443;-67
2024/03/30 08:38:21;;;;;;;19.77;18.40;;;22.20;73.20;;;;;;5071675;28;20439;-67
2024/03/30 08:40:48;;;;;;;21.20;19.70;;;22.20;73.00;;;;;;5071974;28;20466;-67
2024/03/30 08:43:16;;;;;;;19.43;17.83;;;22.30;72.50;;;;;;5072094;28;20552;-67
2024/03/30 08:45:42;;;;;;;21.07;19.27;;;22.30;72.50;;;;;;5070978;28;20489;-68
2024/03/30 08:48:13;;;;;;;20.93;19.43;;;22.30;72.30;;;;;;5071655;28;20972;-67
2024/03/30 08:50:39;;;;;;;20.67;19.23;;;22.40;72.20;;;;;;5071793;28;20470;-68
2024/03/30 08:53:06;;;;;;;21.40;19.20;;;22.40;72.10;;;;;;5072044;28;20911;-66
2024/03/30 08:55:32;;;;;;;20.57;19.47;;;22.40;71.80;;;;;;5070320;28;20204;-66
2024/03/30 08:57:58;;;;;;;20.90;19.63;;;22.40;71.70;;;;;;5071522;28;20439;-65
2024/03/30 09:00:25;;;;;;;19.80;18.80;;;22.40;71.50;;;;;;5071551;28;20221;-67
2024/03/30 09:02:54;;;;;;;19.80;18.60;;;22.40;71.50;;;;;;5071763;28;20478;-66
2024/03/30 09:05:19;;;;;;;20.23;19.10;;;22.50;71.30;;;;;;5055241;28;20444;-66
2024/03/30 09:07:46;;;;;;;20.03;19.00;;;22.50;70.80;;;;;;5051243;28;20432;-70
2024/03/30 09:10:12;;;;;;;19.07;18.27;;;22.50;70.60;;;;;;5051704;28;20221;-68
2024/03/30 09:12:39;;;;;;;20.37;19.43;;;22.50;71.30;;;;;;5058837;28;20438;-70
2024/03/30 09:15:06;;;;;;;20.63;19.40;;;22.50;70.10;;;;;;5071540;28;20580;-67
2024/03/30 09:17:34;;;;;;;19.47;18.47;;;22.60;71.10;;;;;;5071679;28;20942;-69
2024/03/30 09:20:00;;;;;;;19.20;18.30;;;22.60;69.60;;;;;;5071182;28;20958;-69
2024/03/30 09:22:27;;;;;;;19.60;18.10;;;22.60;69.30;;;;;;5069672;28;20451;-68
2024/03/30 09:24:54;;;;;;;20.53;19.20;;;22.70;69.30;;;;;;5071327;28;20443;-68
2024/03/30 09:27:23;;;;;;;20.33;19.23;;;22.70;69.70;;;;;;5053002;28;20487;-71
2024/03/30 09:29:48;;;;;;;20.23;19.20;;;22.70;68.70;;;;;;5050923;28;20450;-67
2024/03/30 09:32:15;;;;;;;20.97;19.97;;;22.70;68.80;;;;;;5052513;28;20819;-66
2024/03/30 09:34:42;;;;;;;20.33;18.90;;;22.80;69.20;;;;;;5051376;28;20224;-68
2024/03/30 09:37:09;;;;;;;20.90;19.57;;;22.80;68.70;;;;;;5051429;28;20502;-66
2024/03/30 09:39:36;;;;;;;20.90;19.80;;;22.80;68.90;;;;;;5050872;28;20439;-70
2024/03/30 09:42:07;;;;;;;20.50;19.40;;;22.80;68.30;;;;;;5051851;28;20987;-66
2024/03/30 09:44:34;;;;;;;19.93;19.13;;;22.80;67.80;;;;;;5051299;28;20476;-65
2024/03/30 09:47:03;;;;;;;19.70;18.97;;;22.80;68.40;;;;;;5051431;28;20444;-66
2024/03/30 09:49:32;;;;;;;19.23;18.00;;;22.80;67.90;;;;;;5050997;28;20432;-67
2024/03/30 09:52:03;;;;;;;20.77;19.17;;;22.90;68.10;;;;;;5051080;28;20982;-68
2024/03/30 09:54:30;;;;;;;19.80;18.63;;;22.90;67.60;;;;;;5071017;28;20435;-69
2024/03/30 09:56:58;;;;;;;19.17;18.10;;;22.80;67.80;;;;;;5074540;28;20447;-70
2024/03/30 09:59:24;;;;;;;20.37;19.17;;;22.90;67.70;;;;;;5074698;28;20494;-70
2024/03/30 10:01:51;;;;;;;20.23;19.27;;;22.80;66.60;;;;;;5074929;28;20451;-69
2024/03/30 10:04:17;;;;;;;19.90;19.00;;;22.80;66.50;;;;;;5075052;28;20475;-68
2024/03/30 10:06:50;;;;;;;19.20;18.30;;;22.80;67.60;;;;;;5075476;28;20534;-69
2024/03/30 10:09:19;;;;;;;19.23;18.20;;;22.80;67.50;;;;;;5074795;28;20196;-68
2024/03/30 10:11:47;;;;;;;19.67;18.83;;;22.80;67.20;;;;;;5063982;28;20460;-68
2024/03/30 10:14:22;;;;;;;20.83;19.73;;;22.90;66.90;;;;;;5055025;28;20432;-65
2024/03/30 10:16:49;;;;;;;19.63;18.53;;;22.90;66.70;;;;;;5054944;28;20451;-68
2024/03/30 10:19:17;;;;;;;20.73;19.60;;;22.90;66.40;;;;;;5054634;28;20447;-65
2024/03/30 10:21:45;;;;;;;19.77;18.97;;;22.90;66.20;;;;;;5064576;28;20534;-68
2024/03/30 10:24:12;;;;;;;20.63;19.67;;;22.90;66.30;;;;;;5074798;28;20478;-68
2024/03/30 10:26:41;;;;;;;20.10;19.10;;;22.90;66.00;;;;;;5074694;28;20485;-68
2024/03/30 10:29:08;;;;;;;18.73;17.90;;;22.90;66.20;;;;;;5074699;28;20488;-67
2024/03/30 10:31:35;;;;;;;20.37;19.57;;;22.90;66.00;;;;;;5074350;28;20466;-67
2024/03/30 10:34:01;;;;;;;19.40;18.60;;;22.90;66.00;;;;;;5074768;28;20438;-68
2024/03/30 10:36:28;;;;;;;20.63;19.60;;;22.90;65.80;;;;;;5074293;28;20442;-67
2024/03/30 10:38:56;;;;;;;19.43;18.73;;;23.00;65.80;;;;;;5074156;28;20629;-68
2024/03/30 10:41:26;;;;;;;20.03;19.23;;;22.90;65.60;;;;;;5074213;28;20465;-67
2024/03/30 10:43:53;;;;;;;18.97;18.27;;;22.90;65.40;;;;;;5074322;28;20478;-67
2024/03/30 10:46:20;;;;;;;19.33;18.33;;;22.90;65.40;;;;;;5074312;28;20501;-67
2024/03/30 10:48:46;;;;;;;20.17;19.07;;;22.90;65.30;;;;;;5073804;28;21057;-67
2024/03/30 10:51:13;;;;;;;19.30;18.47;;;23.00;66.40;;;;;;5073928;28;20466;-67
2024/03/30 10:53:39;;;;;;;18.47;17.87;;;23.00;65.30;;;;;;5073901;28;20438;-66
2024/03/30 10:56:07;;;;;;;19.90;19.10;;;23.10;65.30;;;;;;5074004;28;20461;-67
2024/03/30 10:58:33;;;;;;;20.10;19.30;;;23.10;65.10;;;;;;5073498;28;20434;-67
2024/03/30 11:01:03;;;;;;;20.90;19.77;;;23.10;65.10;;;;;;5073559;28;20470;-67
2024/03/30 11:03:31;;;;;;;20.40;19.70;;;23.20;65.00;;;;;;5074779;28;20560;-68
2024/03/30 11:05:58;;;;;;;20.13;19.23;;;23.10;64.40;;;;;;5073917;28;20816;-68
2024/03/30 11:08:26;;;;;;;20.23;19.27;;;23.20;64.20;;;;;;5072738;28;20446;-67
2024/03/30 11:10:53;;;;;;;20.67;19.67;;;23.10;64.40;;;;;;5073367;28;20459;-68
2024/03/30 11:13:19;;;;;;;20.23;19.23;;;23.20;64.60;;;;;;5073554;28;20462;-67
2024/03/30 11:15:49;;;;;;;20.50;19.40;;;23.10;64.50;;;;;;5073509;28;20496;-67
2024/03/30 11:18:24;;;;;;;18.53;17.83;;;23.10;64.10;;;;;;5073194;28;20443;-67
2024/03/30 11:21:03;;;;;;;20.07;18.80;;;23.10;64.20;;;;;;5071623;28;21045;-68
2024/03/30 11:23:40;;;;;;;21.77;20.73;;;23.10;64.10;;;;;;5073594;28;20471;-68
2024/03/30 11:26:09;;;;;;;19.73;18.80;;;23.10;64.20;;;;;;5073490;28;20830;-69
2024/03/30 11:28:48;;;;;;;20.40;19.40;;;23.10;64.10;;;;;;5072966;28;21107;-68
2024/03/30 11:31:23;;;;;;;18.40;17.70;;;23.20;64.70;;;;;;5072943;28;20497;-69
2024/03/30 11:33:58;;;;;;;19.30;18.20;;;23.10;64.50;;;;;;5073260;28;20480;-67
2024/03/30 11:36:35;;;;;;;18.70;18.10;;;23.10;63.90;;;;;;5073238;28;20442;-67
2024/03/30 11:39:15;;;;;;;19.17;18.50;;;23.20;64.40;;;;;;5072706;28;20838;-69
2024/03/30 11:41:48;;;;;;;19.77;18.87;;;23.10;64.40;;;;;;5073026;28;20462;-69
2024/03/30 11:44:18;;;;;;;19.87;18.80;;;23.10;63.90;;;;;;5073149;28;20574;-69
2024/03/30 11:46:46;;;;;;;19.67;18.67;;;23.20;64.20;;;;;;5072934;28;20439;-69
2024/03/30 11:49:14;;;;;;;19.80;19.00;;;23.20;63.50;;;;;;5072239;28;20795;-68
2024/03/30 11:51:42;;;;;;;20.43;19.37;;;23.20;63.00;;;;;;5072755;28;20459;-70
2024/03/30 11:54:21;;;;;;;18.83;18.13;;;23.20;63.70;;;;;;5072988;28;20442;-69
2024/03/30 11:57:04;;;;;;;21.67;20.53;;;23.20;62.90;;;;;;5072654;28;20438;-70
2024/03/30 11:59:37;;;;;;;22.50;21.23;;;23.20;62.50;;;;;;5071893;28;20446;-69
2024/03/30 12:02:03;;;;;;;22.00;20.65;;;23.20;62.70;;;;;;5072628;28;20450;-71
2024/03/30 12:04:34;;;;;;;20.50;19.50;;;23.20;63.10;;;;;;5071704;28;20447;-70
2024/03/30 12:07:00;;;;;;;21.00;20.20;;;23.20;62.80;;;;;;5072626;28;20439;-71
2024/03/30 12:09:28;;;;;;;23.47;22.23;;;23.20;62.70;;;;;;5071776;28;20503;-71
2024/03/30 12:12:09;;;;;;;23.67;22.67;;;23.20;62.70;;;;;;5052384;28;20226;-68
2024/03/30 12:14:39;;;;;;;23.63;22.53;;;23.10;62.60;;;;;;5052340;28;20432;-68
2024/03/30 12:17:05;;;;;;;23.00;22.20;;;23.10;62.80;;;;;;5052253;28;20436;-68
2024/03/30 12:19:34;;;;;;;22.77;21.77;;;23.20;63.20;;;;;;5051137;28;20470;-66
2024/03/30 12:22:00;;;;;;;22.70;21.70;;;23.20;62.60;;;;;;5072189;28;20217;-65
2024/03/30 12:24:27;;;;;;;25.07;23.67;;;23.10;62.20;;;;;;5072111;28;20573;-66
2024/03/30 12:26:54;;;;;;;22.30;21.40;;;23.10;62.20;;;;;;5072115;28;20439;-65
2024/03/30 12:29:21;;;;;;;23.20;22.20;;;23.10;62.60;;;;;;5071608;28;20443;-71
2024/03/30 12:31:47;;;;;;;24.67;23.47;;;23.10;63.50;;;;;;5071962;28;20474;-70
2024/03/30 12:34:14;;;;;;;24.00;22.87;;;23.20;63.20;;;;;;5072003;28;20435;-67
2024/03/30 12:36:42;;;;;;;23.20;22.03;;;23.20;63.00;;;;;;5071270;28;20443;-66